ADDS METAR Data INFO
IDs: Format: Raw Decoded Include TAF

Data at: 2053 UTC 26 May 2017

K6R3 262035Z AUTO 19011G18KT 7SM BKN031 OVC038 31/24 A2988 RMK AO2 T03100241
K6R3 262015Z AUTO 17013G18KT 7SM BKN029 OVC038 31/24 A2988 RMK AO2 T03090243
K6R3 261955Z AUTO 17010G17KT 7SM BKN031 OVC036 31/24 A2989 RMK AO2 T03050241
K6R3 261935Z AUTO 16010G16KT 7SM BKN033 OVC041 31/24 A2989 RMK AO2 T03110241
K6R3 261915Z AUTO 16010G15KT 10SM BKN033 OVC041 31/24 A2989 RMK AO2 T03140242
K6R3 261855Z AUTO 19009KT 7SM SCT033 BKN039 OVC046 31/24 A2990 RMK AO2 T03090237
K6R3 261815Z AUTO 18010G14KT 7SM BKN035 OVC043 31/23 A2991 RMK AO2 T03090234
K6R3 261755Z AUTO 20007KT 7SM BKN034 OVC042 31/23 A2992 RMK AO2 T03120233 10312 20212
K6R3 261735Z AUTO 17011KT 5SM HZ BKN029 OVC040 30/23 A2992 RMK AO2 T03000233
K6R3 261715Z AUTO 21007G14KT 7SM SCT024 SCT029 BKN040 30/23 A2993 RMK AO2 T03010234
K6R3 261655Z AUTO 20009KT 7SM SCT025 BKN037 OVC043 30/24 A2993 RMK AO2 T02960236
K6R3 261635Z AUTO 22010KT 7SM SCT020 BKN035 OVC041 28/24 A2993 RMK AO2 T02840235
K6R3 261615Z AUTO 19005KT 5SM HZ BKN020 BKN026 OVC041 27/23 A2993 RMK AO2 T02670232
K6R3 261555Z AUTO 21005KT 7SM SCT020 BKN027 OVC038 27/23 A2993 RMK AO2 T02710231
K6R3 261535Z AUTO 18005KT 5SM HZ SCT017 BKN022 OVC035 26/23 A2993 RMK AO2 T02620232
K6R3 261515Z AUTO 17006KT 7SM BKN017 BKN021 OVC035 26/23 A2992 RMK AO2 T02550230
K6R3 261455Z AUTO 18007KT 7SM SCT013 OVC037 26/23 A2993 RMK AO2 T02550229
K6R3 261435Z AUTO 17007KT 5SM BR OVC037 25/23 A2992 RMK AO2 T02500228
K6R3 261415Z AUTO 17005KT 7SM OVC033 24/23 A2992 RMK AO2 T02420226
K6R3 261355Z AUTO 18005KT 5SM BR OVC033 24/22 A2992 RMK AO2 T02360222
K6R3 261335Z AUTO 17004KT 7SM OVC033 23/22 A2991 RMK AO2 T02300219
K6R3 261315Z AUTO 16004KT 5SM BR SCT021 OVC033 23/22 A2990 RMK AO2 T02260215
K6R3 261255Z AUTO 16004KT 5SM BR OVC025 22/21 A2990 RMK AO2 T02240213
K6R3 261235Z AUTO 14003KT 7SM OVC025 22/21 A2989 RMK AO2 T02200210
K6R3 261215Z AUTO 14003KT 5SM BR OVC023 22/21 A2989 RMK AO2 T02160208
K6R3 261155Z AUTO 15003KT 5SM BR SCT018 OVC025 21/21 A2988 RMK AO2 T02120205 10212 20190
K6R3 261135Z AUTO 00000KT 7SM BKN018 OVC025 20/20 A2988 RMK AO2 T02030196
K6R3 261115Z AUTO 00000KT 7SM BKN016 OVC025 20/19 A2988 RMK AO2 T01980191
K6R3 261055Z AUTO 00000KT 7SM BKN018 BKN023 20/19 A2987 RMK AO2 T01950187
K6R3 261035Z AUTO 00000KT 7SM SCT018 19/19 A2986 RMK AO2 T01930186
K6R3 261015Z AUTO 00000KT 5SM BR SCT022 20/19 A2985 RMK AO2 T01960189
K6R3 260955Z AUTO 00000KT 7SM SCT018 BKN024 20/19 A2986 RMK AO2 T01970190
K6R3 260935Z AUTO 00000KT 7SM OVC018 20/19 A2986 RMK AO2 T01950186
K6R3 260915Z AUTO 00000KT 7SM OVC018 20/19 A2985 RMK AO2 T01950187
K6R3 260855Z AUTO 00000KT 7SM OVC018 20/19 A2984 RMK AO2 T01960187
K6R3 260835Z AUTO 00000KT 7SM SCT018 20/19 A2983 RMK AO2 T01950186
K6R3 260815Z AUTO 00000KT 5SM BR CLR 20/19 A2983 RMK AO2 T01950186
K6R3 260755Z AUTO 00000KT 7SM CLR 20/19 A2982 RMK AO2 T01950185
K6R3 260735Z AUTO 00000KT 7SM CLR 19/18 A2982 RMK AO2 T01920182
K6R3 260715Z AUTO 00000KT 10SM CLR 20/19 A2982 RMK AO2 T01950185
K6R3 260655Z AUTO 00000KT 7SM CLR 20/18 A2981 RMK AO2 T01950182
K6R3 260635Z AUTO 00000KT 10SM CLR 20/18 A2982 RMK AO2 T01960183
K6R3 260615Z AUTO 00000KT 7SM CLR 20/18 A2982 RMK AO2 T01960183
K6R3 260555Z AUTO 16003KT 10SM CLR 20/18 A2982 RMK AO2 T01970183 10283 20197 403200123
K6R3 260535Z AUTO 19003KT 10SM CLR 20/18 A2982 RMK AO2 LTG DSNT N T01970181
K6R3 260515Z AUTO 18003KT 10SM CLR 20/18 A2982 RMK AO2 T01990182
K6R3 260455Z AUTO 17003KT 7SM CLR 20/18 A2983 RMK AO2 T02000182
K6R3 260435Z AUTO 18003KT 10SM CLR 20/18 A2983 RMK AO2 T02030182
K6R3 260415Z AUTO 18003KT 10SM CLR 21/18 A2982 RMK AO2 T02060182
K6R3 260355Z AUTO 18005KT 10SM CLR 21/18 A2982 RMK AO2 T02130182
K6R3 260335Z AUTO 18006KT 10SM CLR 22/18 A2981 RMK AO2 T02170181
K6R3 260315Z AUTO 18009KT 7SM CLR 22/18 A2980 RMK AO2 T02200180
K6R3 260255Z AUTO 18008G14KT 10SM CLR 23/18 A2979 RMK AO2 T02270176
K6R3 260235Z AUTO 17008KT 10SM CLR 23/17 A2979 RMK AO2 T02300174
K6R3 260215Z AUTO 17006KT 10SM CLR 23/17 A2979 RMK AO2 T02300173
K6R3 260155Z AUTO 16007KT 10SM CLR 23/17 A2978 RMK AO2 T02330166
K6R3 260135Z AUTO 16007KT 10SM CLR 24/16 A2978 RMK AO2 T02390157
K6R3 260115Z AUTO 17009G17KT 7SM CLR 25/16 A2978 RMK AO2 T02500156
K6R3 260055Z AUTO 17012G16KT 10SM CLR 26/17 A2978 RMK AO2 T02570168
K6R3 260035Z AUTO 17011G17KT 7SM CLR 27/17 A2978 RMK AO2 T02670174
K6R3 260015Z AUTO 16008G14KT 10SM CLR 28/18 A2977 RMK AO2 T02760175
K6R3 252355Z AUTO 17010G18KT 10SM CLR 28/16 A2977 RMK AO2 T02830163 10320 20283
K6R3 252335Z AUTO 18013G18KT 10SM CLR 29/16 A2978 RMK AO2 T02880164
K6R3 252315Z AUTO 17011G19KT 10SM CLR 30/17 A2978 RMK AO2 T02950167
K6R3 252255Z AUTO 17010G19KT 10SM CLR 30/17 A2978 RMK AO2 T03020168
K6R3 252235Z AUTO 18014G17KT 10SM CLR 31/17 A2978 RMK AO2 T03050174
K6R3 252215Z AUTO 18013G16KT 7SM CLR 31/18 A2978 RMK AO2 T03110178
K6R3 252155Z AUTO 18011G19KT 10SM CLR 31/17 A2978 RMK AO2 T03070173
K6R3 252135Z AUTO 17012G17KT 7SM CLR 31/17 A2978 RMK AO2 T03120172
K6R3 252115Z AUTO 20010G17KT 7SM CLR 32/16 A2978 RMK AO2 T03190159
K6R3 252055Z AUTO 19010G14KT 10SM CLR 32/17 A2978 RMK AO2 T03180168
K6R3 252035Z AUTO 21010G18KT 7SM CLR 32/16 A2979 RMK AO2 T03160160
K6R3 252015Z AUTO 20015G19KT 7SM CLR 32/17 A2979 RMK AO2 T03180173
K6R3 251955Z AUTO 18010G17KT 7SM CLR 31/17 A2979 RMK AO2 T03140170
K6R3 251935Z AUTO 21010G20KT 10SM CLR 31/16 A2980 RMK AO2 T03110163
K6R3 251915Z AUTO 22010G19KT 7SM CLR 31/16 A2981 RMK AO2 T03100163
K6R3 251855Z AUTO 19011G19KT 150V210 10SM CLR 31/17 A2981 RMK AO2 T03080166
K6R3 251835Z AUTO 21008G18KT 10SM CLR 31/17 A2982 RMK AO2 T03090170
K6R3 251815Z AUTO 21013G18KT 7SM CLR 30/17 A2982 RMK AO2 T03040169
K6R3 251755Z AUTO 21011G18KT 7SM CLR 30/17 A2982 RMK AO2 T03000173 10300 20130
K6R3 251735Z AUTO 18014KT 10SM CLR 30/17 A2982 RMK AO2 T02970169
K6R3 251715Z AUTO 21012G17KT 10SM CLR 29/17 A2984 RMK AO2 T02920166
K6R3 251655Z AUTO 20010G17KT 10SM CLR 29/16 A2984 RMK AO2 T02910163
K6R3 251635Z AUTO 20010G18KT 7SM CLR 29/17 A2984 RMK AO2 T02850165
K6R3 251615Z AUTO 19010G19KT 7SM CLR 28/17 A2984 RMK AO2 T02800165
K6R3 251555Z AUTO 19012G20KT 7SM CLR 28/17 A2984 RMK AO2 T02770165
K6R3 251535Z AUTO 20008G14KT 7SM CLR 27/18 A2984 RMK AO2 T02700179
K6R3 251515Z AUTO 21007KT 7SM CLR 27/19 A2984 RMK AO2 T02650188
K6R3 251455Z AUTO 20007KT 7SM CLR 26/19 A2984 RMK AO2 T02560188
K6R3 251435Z AUTO 19009KT 10SM CLR 25/19 A2984 RMK AO2 T02450188
K6R3 251415Z AUTO 19006KT 7SM CLR 23/19 A2984 RMK AO2 T02300186
K6R3 251355Z AUTO 21004KT 10SM CLR 22/18 A2984 RMK AO2 T02170183
K6R3 251335Z AUTO 00000KT 7SM CLR 20/17 A2984 RMK AO2 T02010174
K6R3 251315Z AUTO 00000KT 7SM CLR 18/16 A2983 RMK AO2 T01800163
K6R3 251255Z AUTO 00000KT 7SM CLR 16/15 A2983 RMK AO2 T01620152
K6R3 251235Z AUTO 00000KT 7SM CLR 15/14 A2983 RMK AO2 T01470141
K6R3 251215Z AUTO 00000KT 5SM BR CLR 14/13 A2983 RMK AO2 T01350130
K6R3 251155Z AUTO 00000KT 7SM CLR 13/13 A2982 RMK AO2 T01300125 10137 20123
K6R3 251135Z AUTO 00000KT 5SM BR CLR 13/12 A2981 RMK AO2 T01260121
K6R3 251115Z AUTO 00000KT 7SM CLR 13/12 A2980 RMK AO2 T01250120
K6R3 251055Z AUTO 00000KT 7SM CLR 13/12 A2979 RMK AO2 T01250120
K6R3 251035Z AUTO 00000KT 7SM CLR 13/12 A2979 RMK AO2 T01260121
K6R3 251015Z AUTO 00000KT 7SM CLR 13/12 A2979 RMK AO2 T01260120
K6R3 250955Z AUTO 00000KT 7SM CLR 13/12 A2979 RMK AO2 T01260121
K6R3 250935Z AUTO 00000KT 7SM CLR 13/12 A2978 RMK AO2 T01250120
K6R3 250915Z AUTO 00000KT 7SM CLR 13/12 A2978 RMK AO2 T01250120
K6R3 250855Z AUTO 00000KT 7SM CLR 13/12 A2978 RMK AO2 T01250120


Page loaded:  20:53 UTC  |   01:53 PM Pacific  |   02:53 PM Mountain  |   03:53 PM Central  |   04:53 PM Eastern

 

ADVISORIES

FORECASTS

FORECASTS

OBSERVATIONS

USER TOOLS

ABOUT US